Buoy 46770

sailwx.info

Track history (hours):
 
Tides and Currents Weather Stations Pressure Air Temp Water Temp Dewpoint Dewpoint Depression Visibility Wind Speed Wind Dir Waves Ship Positions

Drifting buoy 46770

Last reported at 2014-Nov-23 08:30 UTC. Time now 2014-Nov-23 09:43 UTC.
Position N 52°49' E 175°59'.

Barometer 1011.7 mb
Water temperature 5.4 ° C

Date/timePositionNaut miles runAvg speedWind from/ knotsBaromVisibWave heightAir tempDewpointWater temp
2014-Nov-23 08:30N 52°49' E 175°59'0 0.2 1011.7 5.4
2014-Nov-23 06:30N 52°49' E 175°59'1 0.7 1011.0 5.4
2014-Nov-23 05:30N 52°50' E 175°59'0 0.1 1010.6 5.4
2014-Nov-23 03:30N 52°50' E 175°59'1 1.1 1009.9 5.4
2014-Nov-23 02:30N 52°50' E 175°57'1 0.4 1009.4 5.4
2014-Nov-23 00:30N 52°50' E 175°56'1 0.6 1008.8 5.4
2014-Nov-22 23:30N 52°50' E 175°56'2 1.7 1008.8 5.5
2014-Nov-22 22:30N 52°50' E 175°53'0 0.0 1008.7 5.5
2014-Nov-22 21:30N 52°50' E 175°53'0 0.3 1008.5 5.5
2014-Nov-22 20:30N 52°50' E 175°53'0 0.0 1007.9 5.5
2014-Nov-22 19:30N 52°50' E 175°53'0 0.2 1007.7 5.5
2014-Nov-22 17:30N 52°50' E 175°52'1 1.2 1006.7 5.5
2014-Nov-22 16:30N 52°51' E 175°52'0 0.0 1006.1 5.5
2014-Nov-22 14:30N 52°51' E 175°52'2 1.1 1005.3 5.5
2014-Nov-22 12:30N 52°51' E 175°49'0 0.0 1004.6 5.5
2014-Nov-22 10:30N 52°51' E 175°49'1 0.5 1003.8 5.5
2014-Nov-22 09:30N 52°51' E 175°48'0 0.2 1003.5 5.5
2014-Nov-22 08:30N 52°51' E 175°48'0 0.0 1002.8 5.5
2014-Nov-22 07:30N 52°51' E 175°48'1 0.3 1002.2 5.5
2014-Nov-22 02:30N 52°52' E 175°47'0 0.0 999.4 5.5
2014-Nov-22 01:30N 52°52' E 175°47'1 0.8 999.0 5.5
2014-Nov-22 00:30N 52°53' E 175°46'1 0.7 998.7 5.5
2014-Nov-21 23:30N 52°53' E 175°45'1 0.5 998.3 5.5
2014-Nov-21 21:30N 52°52' E 175°44'1 0.2 997.5 5.5
2014-Nov-21 18:30N 52°52' E 175°44'0 0.0 995.6 5.5
2014-Nov-21 17:30N 52°52' E 175°44'1 0.9 995.0 5.5
2014-Nov-21 16:30N 52°51' E 175°45'1 0.3 994.2 5.5
2014-Nov-21 12:30N 52°52' E 175°43'0 0.0 992.2 5.6
2014-Nov-21 10:30N 52°52' E 175°43'1 0.4 990.9 5.6
2014-Nov-21 07:30N 52°51' E 175°41'0 0.1 989.2 5.6
2014-Nov-21 06:30N 52°51' E 175°41'1 0.3 988.6 5.6
2014-Nov-21 02:30N 52°50' E 175°40'1 0.4 986.8 5.6
2014-Nov-21 00:30N 52°50' E 175°40'0 0.2 986.2 5.6
2014-Nov-20 22:30N 52°50' E 175°39'2 0.4 986.1 5.6
2014-Nov-20 18:30N 52°50' E 175°37'1 0.4 984.9 5.6
2014-Nov-20 16:30N 52°49' E 175°36'2 0.2 984.6 5.6
2014-Nov-20 09:30N 52°49' E 175°34'1 0.7 982.7 5.6
2014-Nov-20 08:30N 52°49' E 175°32'1 1.2 982.3 5.6
2014-Nov-20 07:30N 52°48' E 175°31'2 0.4 981.7 5.6
2014-Nov-20 03:30N 52°47' E 175°28'0 0.0 979.5 5.6
2014-Nov-20 02:30N 52°47' E 175°28'0 0.3 979.1 5.6
2014-Nov-20 01:30N 52°47' E 175°28'0 0.3 978.8 5.6
2014-Nov-20 00:30N 52°47' E 175°28'0 0.0 978.7 5.6
2014-Nov-19 22:30N 52°47' E 175°28'1 0.9 978.7 5.6
2014-Nov-19 21:30N 52°48' E 175°27'0 0.0 978.7 5.5
2014-Nov-19 20:30N 52°48' E 175°27'0 0.0 978.5 5.6
2014-Nov-19 19:30N 52°48' E 175°27'1 0.4 978.2 5.6
2014-Nov-19 17:30N 52°47' E 175°26'0 0.4 978.0 5.6
2014-Nov-19 16:30N 52°47' E 175°26'1 0.3 978.2 5.6
2014-Nov-19 13:30N 52°47' E 175°25'1 0.3 979.3 5.6
2014-Nov-19 09:30N 52°46' E 175°25'1 1.1 981.4 5.6
2014-Nov-19 08:30N 52°46' E 175°23'1 0.2 982.0 5.6
2014-Nov-19 03:30N 52°45' E 175°22'0 0.0 984.2 5.6
2014-Nov-19 02:30N 52°45' E 175°22'2 1.6 984.6 5.6
2014-Nov-19 01:30N 52°44' E 175°19'0 0.2 985.2 5.6
2014-Nov-19 00:30N 52°45' E 175°19'1 0.7 985.8 5.6
2014-Nov-18 23:30N 52°44' E 175°20'1 0.3 986.2 5.6
2014-Nov-18 20:30N 52°44' E 175°19'0 0.0 987.3 5.6
2014-Nov-18 19:30N 52°44' E 175°19'1 0.2 987.6 5.6
2014-Nov-18 16:30N 52°44' E 175°18'1 0.2 989.3 5.6
2014-Nov-18 13:30N 52°44' E 175°17'1 0.4 991.3 5.6
2014-Nov-18 09:30N 52°43' E 175°16'0 0.0 993.9 5.6
2014-Nov-18 08:30N 52°43' E 175°16'0 0.4 994.5 5.6
2014-Nov-18 07:30N 52°43' E 175°16'1 1.1 995.2 5.6
2014-Nov-18 06:30N 52°43' E 175°14'0 0.0 995.4 5.6
2014-Nov-18 04:30N 52°43' E 175°14'0 0.2 995.9 5.6
2014-Nov-18 02:30N 52°43' E 175°13'1 1.3 996.0 5.6
2014-Nov-18 01:30N 52°42' E 175°12'1 0.4 996.0 5.6
2014-Nov-17 23:30N 52°42' E 175°11'1 0.1 996.6 5.6
2014-Nov-17 18:30N 52°43' E 175°10'1 0.9 996.1 5.5
2014-Nov-17 17:30N 52°43' E 175°09'0 0.4 995.7 5.5
2014-Nov-17 16:30N 52°43' E 175°10'1 1.1 995.2 5.5
2014-Nov-17 15:30N 52°43' E 175°08'0 0.1 994.8 5.5
2014-Nov-17 14:30N 52°43' E 175°08'0 0.1 994.4 5.5
2014-Nov-17 13:30N 52°43' E 175°08'1 0.2 994.2 5.5
2014-Nov-17 10:30N 52°43' E 175°08'1 0.4 993.3 5.6
2014-Nov-17 08:30N 52°42' E 175°07'1 0.2 992.5 5.6
2014-Nov-17 05:30N 52°43' E 175°07'1 0.5 991.3 5.6
2014-Nov-17 03:30N 52°42' E 175°06'1 0.7 989.9 5.6
2014-Nov-17 02:30N 52°43' E 175°05'0 0.4 989.6 5.6
2014-Nov-17 01:30N 52°43' E 175°05'1 0.5 989.3 5.6
2014-Nov-16 23:30N 52°42' E 175°03'1 0.3 989.4 5.6
2014-Nov-16 21:30N 52°42' E 175°02'0 0.0 989.2 5.6
2014-Nov-16 18:30N 52°42' E 175°02'1 0.3 988.5 5.6
2014-Nov-16 15:30N 52°43' E 175°01'2 1.0 989.0 5.6
2014-Nov-16 13:30N 52°42' E 174°58'0 0.0 989.6 5.6
2014-Nov-16 10:30N 52°42' E 174°58'1 0.3 990.7 5.6
2014-Nov-16 07:30N 52°43' E 174°57'1 0.6 991.9 5.6
2014-Nov-16 05:30N 52°43' E 174°55'1 0.4 992.1 5.6
2014-Nov-16 03:30N 52°44' E 174°55'0 0.2 992.1 5.6
2014-Nov-16 02:30N 52°44' E 174°54'1 0.8 992.2 5.6
2014-Nov-16 01:30N 52°44' E 174°53'3 0.5 992.5 5.6
2014-Nov-15 19:30N 52°46' E 174°49'0 0.2 993.3 5.6
2014-Nov-15 18:30N 52°46' E 174°49'1 1.2 993.4 5.6
2014-Nov-15 17:30N 52°47' E 174°48'1 0.4 993.6 5.6
2014-Nov-15 15:30N 52°47' E 174°47'3 1.5 993.5 5.6
2014-Nov-15 13:30N 52°50' E 174°44'1 0.2 993.4 5.6
2014-Nov-15 08:30N 52°51' E 174°43'0 0.3 993.5 5.6
2014-Nov-15 07:30N 52°51' E 174°44'1 1.2 993.5 5.6
2014-Nov-15 06:30N 52°52' E 174°42'1 0.7 993.7 5.6
2014-Nov-15 05:30N 52°52' E 174°41'0 0.0 994.1 5.6
2014-Nov-15 03:30N 52°52' E 174°41'1 0.5 994.6 5.6
2014-Nov-15 01:30N 52°53' E 174°40'0 0.0 969.8 5.6
2014-Nov-15 00:30N 52°53' E 174°40'2 0.4 996.0 5.6
2014-Nov-14 19:30N 52°55' E 174°38'1 0.4 998.6 5.7
2014-Nov-14 17:30N 52°55' E 174°38'0 0.4 999.7 5.7
2014-Nov-14 16:30N 52°55' E 174°37'1 0.6 1000.2 5.7
2014-Nov-14 15:30N 52°56' E 174°37'0 0.3 1001.2 5.8
2014-Nov-14 14:30N 52°56' E 174°38'3 0.6 1002.2 5.8
2014-Nov-14 10:30N 52°58' E 174°35'0 0.0 1006.9 5.9
2014-Nov-14 09:30N 52°58' E 174°35'1 0.4 1007.9 5.9
2014-Nov-14 07:30N 52°58' E 174°34'3 1.3 1009.6 5.9
2014-Nov-14 05:30N 53°00' E 174°31'1 0.5 1011.1 6.0
2014-Nov-14 03:30N 53°01' E 174°29'0 0.0 1012.4 6.0
2014-Nov-14 02:30N 53°01' E 174°29'1 0.4 1013.0 6.0
2014-Nov-14 00:30N 53°01' E 174°28'4 0.8 1015.6 6.0
2014-Nov-13 19:30N 53°04' E 174°23'1 0.9 1017.8 6.0
2014-Nov-13 18:30N 53°05' E 174°22'0 0.4 1018.1 6.0
2014-Nov-13 17:30N 53°05' E 174°22'1 0.9 1018.2 6.0
2014-Nov-13 16:30N 53°05' E 174°20'0 0.0 1018.2 6.0
2014-Nov-13 15:30N 53°05' E 174°20'2 2.5 1018.4 6.0
2014-Nov-13 14:30N 53°07' E 174°17'4 0.7 1018.7 6.0
2014-Nov-13 09:30N 53°07' E 174°11'0 0.0 1017.9 6.0
2014-Nov-13 08:30N 53°07' E 174°11'   1018.0 6.0
Track history (hours):
 
Tides and Currents Weather Stations Pressure Air Temp Water Temp Dewpoint Dewpoint Depression Visibility Wind Speed Wind Dir Waves Ship Positions

Drifting buoy 46770

Last reported at 2014-Nov-23 08:30 UTC. Time now 2014-Nov-23 09:43 UTC.
Position N 52°49' E 175°59'.

Barometer 1011.7 mb
Water temperature 5.4 ° C

Date/timePositionNaut miles runAvg speedWind from/ knotsBaromVisibWave heightAir tempDewpointWater temp
2014-Nov-23 08:30N 52°49' E 175°59'0 0.2 1011.7 5.4
2014-Nov-23 06:30N 52°49' E 175°59'1 0.7 1011.0 5.4
2014-Nov-23 05:30N 52°50' E 175°59'0 0.1 1010.6 5.4
2014-Nov-23 03:30N 52°50' E 175°59'1 1.1 1009.9 5.4
2014-Nov-23 02:30N 52°50' E 175°57'1 0.4 1009.4 5.4
2014-Nov-23 00:30N 52°50' E 175°56'1 0.6 1008.8 5.4
2014-Nov-22 23:30N 52°50' E 175°56'2 1.7 1008.8 5.5
2014-Nov-22 22:30N 52°50' E 175°53'0 0.0 1008.7 5.5
2014-Nov-22 21:30N 52°50' E 175°53'0 0.3 1008.5 5.5
2014-Nov-22 20:30N 52°50' E 175°53'0 0.0 1007.9 5.5
2014-Nov-22 19:30N 52°50' E 175°53'0 0.2 1007.7 5.5
2014-Nov-22 17:30N 52°50' E 175°52'1 1.2 1006.7 5.5
2014-Nov-22 16:30N 52°51' E 175°52'0 0.0 1006.1 5.5
2014-Nov-22 14:30N 52°51' E 175°52'2 1.1 1005.3 5.5
2014-Nov-22 12:30N 52°51' E 175°49'0 0.0 1004.6 5.5
2014-Nov-22 10:30N 52°51' E 175°49'1 0.5 1003.8 5.5
2014-Nov-22 09:30N 52°51' E 175°48'0 0.2 1003.5 5.5
2014-Nov-22 08:30N 52°51' E 175°48'0 0.0 1002.8 5.5
2014-Nov-22 07:30N 52°51' E 175°48'1 0.3 1002.2 5.5
2014-Nov-22 02:30N 52°52' E 175°47'0 0.0 999.4 5.5
2014-Nov-22 01:30N 52°52' E 175°47'1 0.8 999.0 5.5
2014-Nov-22 00:30N 52°53' E 175°46'1 0.7 998.7 5.5
2014-Nov-21 23:30N 52°53' E 175°45'1 0.5 998.3 5.5
2014-Nov-21 21:30N 52°52' E 175°44'1 0.2 997.5 5.5
2014-Nov-21 18:30N 52°52' E 175°44'0 0.0 995.6 5.5
2014-Nov-21 17:30N 52°52' E 175°44'1 0.9 995.0 5.5
2014-Nov-21 16:30N 52°51' E 175°45'1 0.3 994.2 5.5
2014-Nov-21 12:30N 52°52' E 175°43'0 0.0 992.2 5.6
2014-Nov-21 10:30N 52°52' E 175°43'1 0.4 990.9 5.6
2014-Nov-21 07:30N 52°51' E 175°41'0 0.1 989.2 5.6
2014-Nov-21 06:30N 52°51' E 175°41'1 0.3 988.6 5.6
2014-Nov-21 02:30N 52°50' E 175°40'1 0.4 986.8 5.6
2014-Nov-21 00:30N 52°50' E 175°40'0 0.2 986.2 5.6
2014-Nov-20 22:30N 52°50' E 175°39'2 0.4 986.1 5.6
2014-Nov-20 18:30N 52°50' E 175°37'1 0.4 984.9 5.6
2014-Nov-20 16:30N 52°49' E 175°36'2 0.2 984.6 5.6
2014-Nov-20 09:30N 52°49' E 175°34'1 0.7 982.7 5.6
2014-Nov-20 08:30N 52°49' E 175°32'1 1.2 982.3 5.6
2014-Nov-20 07:30N 52°48' E 175°31'2 0.4 981.7 5.6
2014-Nov-20 03:30N 52°47' E 175°28'0 0.0 979.5 5.6
2014-Nov-20 02:30N 52°47' E 175°28'0 0.3 979.1 5.6
2014-Nov-20 01:30N 52°47' E 175°28'0 0.3 978.8 5.6
2014-Nov-20 00:30N 52°47' E 175°28'0 0.0 978.7 5.6
2014-Nov-19 22:30N 52°47' E 175°28'1 0.9 978.7 5.6
2014-Nov-19 21:30N 52°48' E 175°27'0 0.0 978.7 5.5
2014-Nov-19 20:30N 52°48' E 175°27'0 0.0 978.5 5.6
2014-Nov-19 19:30N 52°48' E 175°27'1 0.4 978.2 5.6
2014-Nov-19 17:30N 52°47' E 175°26'0 0.4 978.0 5.6
2014-Nov-19 16:30N 52°47' E 175°26'1 0.3 978.2 5.6
2014-Nov-19 13:30N 52°47' E 175°25'1 0.3 979.3 5.6
2014-Nov-19 09:30N 52°46' E 175°25'1 1.1 981.4 5.6
2014-Nov-19 08:30N 52°46' E 175°23'1 0.2 982.0 5.6
2014-Nov-19 03:30N 52°45' E 175°22'0 0.0 984.2 5.6
2014-Nov-19 02:30N 52°45' E 175°22'2 1.6 984.6 5.6
2014-Nov-19 01:30N 52°44' E 175°19'0 0.2 985.2 5.6
2014-Nov-19 00:30N 52°45' E 175°19'1 0.7 985.8 5.6
2014-Nov-18 23:30N 52°44' E 175°20'1 0.3 986.2 5.6
2014-Nov-18 20:30N 52°44' E 175°19'0 0.0 987.3 5.6
2014-Nov-18 19:30N 52°44' E 175°19'1 0.2 987.6 5.6
2014-Nov-18 16:30N 52°44' E 175°18'1 0.2 989.3 5.6
2014-Nov-18 13:30N 52°44' E 175°17'1 0.4 991.3 5.6
2014-Nov-18 09:30N 52°43' E 175°16'0 0.0 993.9 5.6
2014-Nov-18 08:30N 52°43' E 175°16'0 0.4 994.5 5.6
2014-Nov-18 07:30N 52°43' E 175°16'1 1.1 995.2 5.6
2014-Nov-18 06:30N 52°43' E 175°14'0 0.0 995.4 5.6
2014-Nov-18 04:30N 52°43' E 175°14'0 0.2 995.9 5.6
2014-Nov-18 02:30N 52°43' E 175°13'1 1.3 996.0 5.6
2014-Nov-18 01:30N 52°42' E 175°12'1 0.4 996.0 5.6
2014-Nov-17 23:30N 52°42' E 175°11'1 0.1 996.6 5.6
2014-Nov-17 18:30N 52°43' E 175°10'1 0.9 996.1 5.5
2014-Nov-17 17:30N 52°43' E 175°09'0 0.4 995.7 5.5
2014-Nov-17 16:30N 52°43' E 175°10'1 1.1 995.2 5.5
2014-Nov-17 15:30N 52°43' E 175°08'0 0.1 994.8 5.5
2014-Nov-17 14:30N 52°43' E 175°08'0 0.1 994.4 5.5
2014-Nov-17 13:30N 52°43' E 175°08'1 0.2 994.2 5.5
2014-Nov-17 10:30N 52°43' E 175°08'1 0.4 993.3 5.6
2014-Nov-17 08:30N 52°42' E 175°07'1 0.2 992.5 5.6
2014-Nov-17 05:30N 52°43' E 175°07'1 0.5 991.3 5.6
2014-Nov-17 03:30N 52°42' E 175°06'1 0.7 989.9 5.6
2014-Nov-17 02:30N 52°43' E 175°05'0 0.4 989.6 5.6
2014-Nov-17 01:30N 52°43' E 175°05'1 0.5 989.3 5.6
2014-Nov-16 23:30N 52°42' E 175°03'1 0.3 989.4 5.6
2014-Nov-16 21:30N 52°42' E 175°02'0 0.0 989.2 5.6
2014-Nov-16 18:30N 52°42' E 175°02'1 0.3 988.5 5.6
2014-Nov-16 15:30N 52°43' E 175°01'2 1.0 989.0 5.6
2014-Nov-16 13:30N 52°42' E 174°58'0 0.0 989.6 5.6
2014-Nov-16 10:30N 52°42' E 174°58'1 0.3 990.7 5.6
2014-Nov-16 07:30N 52°43' E 174°57'1 0.6 991.9 5.6
2014-Nov-16 05:30N 52°43' E 174°55'1 0.4 992.1 5.6
2014-Nov-16 03:30N 52°44' E 174°55'0 0.2 992.1 5.6
2014-Nov-16 02:30N 52°44' E 174°54'1 0.8 992.2 5.6
2014-Nov-16 01:30N 52°44' E 174°53'3 0.5 992.5 5.6
2014-Nov-15 19:30N 52°46' E 174°49'0 0.2 993.3 5.6
2014-Nov-15 18:30N 52°46' E 174°49'1 1.2 993.4 5.6
2014-Nov-15 17:30N 52°47' E 174°48'1 0.4 993.6 5.6
2014-Nov-15 15:30N 52°47' E 174°47'3 1.5 993.5 5.6
2014-Nov-15 13:30N 52°50' E 174°44'1 0.2 993.4 5.6
2014-Nov-15 08:30N 52°51' E 174°43'0 0.3 993.5 5.6
2014-Nov-15 07:30N 52°51' E 174°44'1 1.2 993.5 5.6
2014-Nov-15 06:30N 52°52' E 174°42'1 0.7 993.7 5.6
2014-Nov-15 05:30N 52°52' E 174°41'0 0.0 994.1 5.6
2014-Nov-15 03:30N 52°52' E 174°41'1 0.5 994.6 5.6
2014-Nov-15 01:30N 52°53' E 174°40'0 0.0 969.8 5.6
2014-Nov-15 00:30N 52°53' E 174°40'2 0.4 996.0 5.6
2014-Nov-14 19:30N 52°55' E 174°38'1 0.4 998.6 5.7
2014-Nov-14 17:30N 52°55' E 174°38'0 0.4 999.7 5.7
2014-Nov-14 16:30N 52°55' E 174°37'1 0.6 1000.2 5.7
2014-Nov-14 15:30N 52°56' E 174°37'0 0.3 1001.2 5.8
2014-Nov-14 14:30N 52°56' E 174°38'3 0.6 1002.2 5.8
2014-Nov-14 10:30N 52°58' E 174°35'0 0.0 1006.9 5.9
2014-Nov-14 09:30N 52°58' E 174°35'1 0.4 1007.9 5.9
2014-Nov-14 07:30N 52°58' E 174°34'3 1.3 1009.6 5.9
2014-Nov-14 05:30N 53°00' E 174°31'1 0.5 1011.1 6.0
2014-Nov-14 03:30N 53°01' E 174°29'0 0.0 1012.4 6.0
2014-Nov-14 02:30N 53°01' E 174°29'1 0.4 1013.0 6.0
2014-Nov-14 00:30N 53°01' E 174°28'4 0.8 1015.6 6.0
2014-Nov-13 19:30N 53°04' E 174°23'1 0.9 1017.8 6.0
2014-Nov-13 18:30N 53°05' E 174°22'0 0.4 1018.1 6.0
2014-Nov-13 17:30N 53°05' E 174°22'1 0.9 1018.2 6.0
2014-Nov-13 16:30N 53°05' E 174°20'0 0.0 1018.2 6.0
2014-Nov-13 15:30N 53°05' E 174°20'2 2.5 1018.4 6.0
2014-Nov-13 14:30N 53°07' E 174°17'4 0.7 1018.7 6.0
2014-Nov-13 09:30N 53°07' E 174°11'0 0.0 1017.9 6.0
2014-Nov-13 08:30N 53°07' E 174°11'   1018.0 6.0

Dump ship's entire track history